createdAt,value
2022-10-05T00:01:12.320Z,8.4
2022-10-05T00:11:14.400Z,8.4
2022-10-05T00:31:18.087Z,8.6
2022-10-05T00:41:19.913Z,8.9
2022-10-05T00:51:22.052Z,9
2022-10-05T01:01:23.844Z,9.1
2022-10-05T01:11:26.143Z,9.2
2022-10-05T01:21:27.836Z,9.1
2022-10-05T01:31:29.700Z,9.3
2022-10-05T01:31:51.584Z,9.3
2022-10-05T01:41:38.805Z,9.3
2022-10-05T01:51:41.317Z,9.3
2022-10-05T02:01:43.120Z,9.4
2022-10-05T02:21:47.616Z,9.8
2022-10-05T02:31:49.948Z,9.8
2022-10-05T02:41:52.492Z,9.9
2022-10-05T02:51:54.227Z,9.9
2022-10-05T03:01:56.730Z,9.9
2022-10-05T03:11:58.541Z,9.9
2022-10-05T03:22:00.742Z,10.1
2022-10-05T03:32:02.743Z,10.1
2022-10-05T03:42:04.735Z,10
2022-10-05T03:52:06.885Z,10.1
2022-10-05T04:02:09.113Z,10.1
2022-10-05T04:12:10.742Z,10.1
2022-10-05T04:22:13.133Z,10
2022-10-05T04:32:15.547Z,10.1
2022-10-05T04:42:17.580Z,10.2
2022-10-05T04:52:19.540Z,10.4
2022-10-05T05:12:24.018Z,10.9
2022-10-05T05:22:26.207Z,11.1
2022-10-05T05:32:28.684Z,11.3
2022-10-05T05:42:30.336Z,11.4
2022-10-05T05:52:32.413Z,11.5
2022-10-05T06:02:35.077Z,11.8
2022-10-05T06:12:36.631Z,12
2022-10-05T06:22:39.177Z,12.5
2022-10-05T06:32:41.210Z,12.6
2022-10-05T06:42:43.835Z,12.8
2022-10-05T06:52:45.481Z,13.1
2022-10-05T07:02:47.385Z,13.3
2022-10-05T07:12:49.974Z,13.8
2022-10-05T07:22:51.873Z,13.9
2022-10-05T07:32:54.389Z,14
2022-10-05T07:42:56.877Z,14.1
2022-10-05T08:03:00.918Z,14.2
2022-10-05T08:13:02.752Z,14.5
2022-10-05T08:23:04.835Z,14.7
2022-10-05T08:33:07.413Z,14.9
2022-10-05T08:43:09.725Z,15
2022-10-05T08:53:11.703Z,15.2
2022-10-05T09:03:14.013Z,15.4
2022-10-05T09:23:18.264Z,15.8
2022-10-05T09:33:20.672Z,16
2022-10-05T09:43:22.889Z,16.2
2022-10-05T09:53:24.763Z,16.4
2022-10-05T10:03:26.778Z,16.6
2022-10-05T10:13:28.808Z,16.8
2022-10-05T10:23:30.881Z,16.8
2022-10-05T10:33:33.338Z,17.1
2022-10-05T10:43:34.991Z,17
2022-10-05T10:53:37.392Z,17.1
2022-10-05T11:03:45.733Z,17.3
2022-10-05T11:13:41.283Z,17.2
2022-10-05T11:23:43.773Z,17.5
2022-10-05T11:33:45.884Z,17.5
2022-10-05T11:43:47.545Z,17.7
2022-10-05T11:53:49.580Z,18.2
2022-10-05T12:03:52.253Z,18.2
2022-10-05T12:13:53.966Z,18.9
2022-10-05T12:23:55.767Z,19.3
2022-10-05T12:33:58.089Z,20.8
2022-10-05T12:44:00.257Z,20.8
2022-10-05T12:54:02.301Z,21.4
2022-10-05T13:04:03.968Z,22.3
2022-10-05T13:14:06.279Z,22
2022-10-05T13:24:08.913Z,21.9
2022-10-05T13:34:10.956Z,21.5
2022-10-05T13:44:13.411Z,22.3
2022-10-05T13:54:15.218Z,21.5
2022-10-05T14:04:17.266Z,21.2
2022-10-05T14:14:18.968Z,21.1
2022-10-05T14:24:39.559Z,21
2022-10-05T14:34:23.398Z,20.5
2022-10-05T14:44:25.330Z,20.2
2022-10-05T14:54:27.597Z,19.9
2022-10-05T15:04:29.443Z,19.8
2022-10-05T15:14:31.423Z,19.7
2022-10-05T15:24:33.365Z,19.3
2022-10-05T15:34:35.586Z,19.3
2022-10-05T15:44:37.845Z,19.2
2022-10-05T15:54:40.188Z,19
2022-10-05T16:04:41.823Z,18.7
2022-10-05T16:14:43.972Z,18.5
2022-10-05T16:24:45.760Z,18.2
2022-10-05T16:34:47.761Z,18.1
2022-10-05T16:44:50.041Z,17.8
2022-10-05T16:54:52.281Z,17.9
2022-10-05T17:04:54.448Z,17.8
2022-10-05T17:14:56.751Z,18.2
2022-10-05T17:24:59.353Z,18
2022-10-05T17:35:01.152Z,17.7
2022-10-05T17:45:03.147Z,17.5
2022-10-05T17:55:05.234Z,17.5
2022-10-05T18:05:07.764Z,17.4
2022-10-05T18:15:09.791Z,17.2
2022-10-05T18:25:11.719Z,17.3
2022-10-05T18:35:13.582Z,17.2
2022-10-05T18:45:15.501Z,17.4
2022-10-05T18:55:17.302Z,17
2022-10-05T19:05:42.914Z,17.2
2022-10-05T19:15:22.390Z,17.2
2022-10-05T19:25:24.312Z,17
2022-10-05T19:45:28.681Z,17.2
2022-10-05T20:15:35.349Z,17.6
2022-10-05T20:35:39.191Z,17.4
2022-10-05T20:45:40.843Z,17.6
2022-10-05T20:55:42.641Z,17.6
2022-10-05T21:05:44.304Z,17.5
2022-10-05T21:35:50.936Z,17.4
2022-10-05T21:45:52.629Z,17.6
2022-10-05T22:36:01.970Z,16.7
2022-10-05T22:56:06.662Z,16.2
2022-10-05T23:06:09.232Z,16
2022-10-05T23:16:11.247Z,15.2
2022-10-05T23:36:15.422Z,13.1
2022-10-05T23:46:17.163Z,12.9
2022-10-05T23:56:19.110Z,12.8
